createdAt,value
2022-12-23T00:00:56.024Z,16.97
2022-12-23T00:05:54.525Z,17.30
2022-12-23T00:10:53.430Z,18.90
2022-12-23T00:15:51.472Z,16.20
2022-12-23T00:20:50.870Z,16.37
2022-12-23T00:25:48.875Z,21.00
2022-12-23T00:30:48.472Z,25.40
2022-12-23T00:35:47.088Z,22.57
2022-12-23T00:41:03.962Z,19.90
2022-12-23T00:46:02.006Z,26.40
2022-12-23T00:51:00.202Z,18.10
2022-12-23T00:55:59.618Z,24.40
2022-12-23T01:01:15.255Z,17.83
2022-12-23T01:06:13.369Z,24.50
2022-12-23T01:11:13.594Z,23.33
2022-12-23T01:16:17.275Z,24.47
2022-12-23T01:21:16.053Z,19.30
2022-12-23T01:26:15.489Z,22.40
2022-12-23T01:31:13.587Z,25.30
2022-12-23T01:36:12.690Z,21.23
2022-12-23T01:41:36.537Z,24.50
2022-12-23T01:46:34.540Z,23.47
2022-12-23T01:51:32.963Z,24.97
2022-12-23T01:56:36.392Z,23.60
2022-12-23T02:01:51.060Z,24.83
2022-12-23T02:07:09.366Z,30.53
2022-12-23T02:12:35.949Z,27.23
2022-12-23T02:17:41.630Z,28.03
2022-12-23T02:23:01.915Z,31.87
2022-12-23T02:28:21.189Z,24.77
2022-12-23T02:33:36.389Z,28.37
2022-12-23T02:38:43.508Z,31.77
2022-12-23T02:43:46.377Z,23.80
2022-12-23T02:48:51.483Z,32.73
2022-12-23T02:53:55.640Z,26.23
2022-12-23T02:58:57.773Z,28.80
2022-12-23T03:03:57.165Z,32.67
2022-12-23T03:08:57.813Z,27.80
2022-12-23T03:14:14.168Z,26.07
2022-12-23T03:19:21.750Z,34.43
2022-12-23T03:24:25.474Z,31.47
2022-12-23T03:29:28.116Z,31.00
2022-12-23T03:34:30.598Z,37.33
2022-12-23T03:39:33.946Z,34.90
2022-12-23T03:44:36.790Z,32.70
2022-12-23T03:49:39.962Z,29.10
2022-12-23T03:54:44.808Z,25.87
2022-12-23T03:59:46.438Z,33.90
2022-12-23T04:04:59.408Z,28.40
2022-12-23T04:09:59.610Z,26.80
2022-12-23T04:14:57.768Z,27.30
2022-12-23T04:19:57.355Z,29.80
2022-12-23T04:24:55.408Z,24.10
2022-12-23T04:29:53.430Z,29.30
2022-12-23T04:34:51.465Z,37.23
2022-12-23T04:39:50.854Z,38.53
2022-12-23T04:44:50.873Z,38.63
2022-12-23T04:49:49.939Z,35.60
2022-12-23T04:54:47.961Z,46.70
2022-12-23T04:59:47.369Z,33.00
2022-12-23T05:04:45.457Z,40.77
2022-12-23T05:09:43.545Z,29.43
2022-12-23T05:14:41.559Z,29.60
2022-12-23T05:19:40.937Z,34.93
2022-12-23T05:24:39.041Z,31.17
2022-12-23T05:29:37.092Z,25.50
2022-12-23T05:34:35.132Z,26.07
2022-12-23T05:39:34.518Z,27.37
2022-12-23T05:44:32.702Z,33.10
2022-12-23T05:49:30.735Z,36.77
2022-12-23T05:54:28.827Z,26.73
2022-12-23T05:59:31.282Z,29.30
2022-12-23T06:04:29.902Z,25.60
2022-12-23T06:09:27.924Z,31.20
2022-12-23T06:14:29.062Z,30.97
2022-12-23T06:19:29.202Z,38.07
2022-12-23T06:24:27.240Z,31.17
2022-12-23T06:29:25.525Z,40.77
2022-12-23T06:34:23.631Z,29.20
2022-12-23T06:39:23.383Z,27.90
2022-12-23T06:44:21.473Z,28.90
2022-12-23T06:49:19.549Z,27.60
2022-12-23T06:54:17.576Z,27.33
2022-12-23T06:59:17.158Z,36.83
2022-12-23T07:04:15.148Z,32.87
2022-12-23T07:09:13.163Z,37.47
2022-12-23T07:14:11.658Z,34.00
2022-12-23T07:19:11.110Z,34.43
2022-12-23T07:24:09.863Z,31.87
2022-12-23T07:29:07.888Z,44.83
2022-12-23T07:34:05.906Z,44.90
2022-12-23T07:39:05.370Z,47.33
2022-12-23T07:44:03.508Z,36.13
2022-12-23T07:49:01.548Z,44.10
2022-12-23T07:53:59.705Z,35.70
2022-12-23T07:58:59.124Z,45.77
2022-12-23T08:03:57.174Z,36.50
2022-12-23T08:08:55.289Z,42.33
2022-12-23T08:13:53.755Z,36.63
2022-12-23T08:18:55.075Z,37.80
2022-12-23T08:23:53.179Z,49.27
2022-12-23T08:28:53.503Z,47.33
2022-12-23T08:33:55.147Z,41.90
2022-12-23T08:38:54.874Z,26.67
2022-12-23T08:43:53.467Z,21.70
2022-12-23T08:48:52.006Z,24.40
2022-12-23T08:53:57.937Z,28.00
2022-12-23T08:58:58.277Z,23.00
2022-12-23T09:03:56.464Z,27.20
2022-12-23T09:08:56.483Z,27.03
2022-12-23T09:13:55.932Z,23.53
2022-12-23T09:18:53.972Z,24.77
2022-12-23T09:23:52.404Z,20.23
2022-12-23T09:28:52.192Z,20.00
2022-12-23T09:33:53.283Z,23.77
2022-12-23T09:38:55.721Z,32.37
2022-12-23T09:44:07.225Z,27.50
2022-12-23T09:49:10.239Z,28.07
2022-12-23T09:54:17.055Z,26.00
2022-12-23T09:59:27.327Z,21.60
2022-12-23T10:04:40.486Z,26.07
2022-12-23T10:09:40.530Z,17.30
2022-12-23T10:14:41.817Z,23.83
2022-12-23T10:19:43.358Z,17.20
2022-12-23T10:24:43.859Z,18.93
2022-12-23T10:29:43.923Z,14.53
2022-12-23T10:34:52.457Z,11.27
2022-12-23T10:40:02.222Z,10.10
2022-12-23T10:45:10.980Z,7.40
2022-12-23T10:50:28.930Z,8.80
2022-12-23T10:55:33.413Z,6.03
2022-12-23T11:00:33.662Z,8.67
2022-12-23T11:05:33.948Z,12.53
2022-12-23T11:10:34.294Z,10.60
2022-12-23T11:15:35.984Z,8.80
2022-12-23T11:20:37.195Z,9.27
2022-12-23T11:25:37.891Z,10.97
2022-12-23T11:30:52.027Z,9.10
2022-12-23T11:36:02.958Z,8.47
2022-12-23T11:41:01.227Z,8.43
2022-12-23T11:46:25.239Z,9.10
2022-12-23T11:51:27.073Z,11.10
2022-12-23T11:56:27.022Z,10.07
2022-12-23T12:01:26.867Z,10.60
2022-12-23T12:06:25.201Z,9.80
2022-12-23T12:11:28.109Z,13.20
2022-12-23T12:16:45.153Z,11.43
2022-12-23T12:21:44.701Z,11.57
2022-12-23T12:26:45.040Z,9.17
2022-12-23T12:31:48.484Z,10.57
2022-12-23T12:36:51.246Z,9.73
2022-12-23T12:41:54.758Z,9.10
2022-12-23T12:47:11.099Z,8.47
2022-12-23T12:52:23.115Z,8.80
2022-12-23T12:57:23.735Z,9.80
2022-12-23T13:02:36.972Z,5.10
2022-12-23T13:07:44.639Z,7.00
2022-12-23T13:12:54.684Z,7.63
2022-12-23T13:18:12.488Z,5.77
2022-12-23T13:23:42.490Z,6.37
2022-12-23T13:28:42.528Z,6.30
2022-12-23T13:33:48.843Z,8.50
2022-12-23T13:39:10.664Z,7.30
2022-12-23T13:44:10.988Z,8.17
2022-12-23T13:49:18.199Z,8.77
2022-12-23T13:54:28.624Z,7.67
2022-12-23T13:59:39.585Z,11.97
2022-12-23T14:04:58.748Z,10.77
2022-12-23T14:10:00.284Z,8.17
2022-12-23T14:15:30.219Z,9.00
2022-12-23T14:20:42.161Z,9.23
2022-12-23T14:25:53.464Z,12.50
2022-12-23T14:30:51.748Z,10.50
2022-12-23T14:35:54.976Z,7.13
2022-12-23T14:41:27.444Z,9.77
2022-12-23T14:46:59.431Z,12.40
2022-12-23T14:52:46.073Z,12.20
2022-12-23T14:57:44.792Z,11.50
2022-12-23T15:02:43.074Z,11.93
2022-12-23T15:07:44.873Z,9.23
2022-12-23T15:12:47.316Z,10.77
2022-12-23T15:17:45.364Z,9.90
2022-12-23T15:22:46.021Z,12.63
2022-12-23T15:27:44.084Z,17.13
2022-12-23T15:32:43.650Z,13.17
2022-12-23T15:37:41.803Z,13.57
2022-12-23T15:42:48.778Z,14.93
2022-12-23T15:47:46.819Z,14.17
2022-12-23T15:52:47.283Z,14.43
2022-12-23T15:57:50.675Z,19.70
2022-12-23T16:03:00.373Z,24.07
2022-12-23T16:08:26.765Z,21.73
2022-12-23T16:13:28.939Z,21.10
2022-12-23T16:18:31.661Z,17.23
2022-12-23T16:23:31.788Z,17.80
2022-12-23T16:28:37.013Z,19.23
2022-12-23T16:33:37.771Z,20.37
2022-12-23T16:38:35.792Z,19.60
2022-12-23T16:43:35.193Z,21.87
2022-12-23T16:48:36.148Z,19.00
2022-12-23T16:53:34.263Z,17.43
2022-12-23T16:58:32.326Z,18.77
2022-12-23T17:03:32.531Z,15.80
2022-12-23T17:08:30.605Z,15.40
2022-12-23T17:13:28.701Z,13.87
2022-12-23T17:18:26.768Z,13.30
2022-12-23T17:23:29.015Z,13.80
2022-12-23T17:28:30.971Z,13.70
2022-12-23T17:33:31.291Z,12.00
2022-12-23T17:38:30.766Z,11.90
2022-12-23T17:43:29.163Z,17.37
2022-12-23T17:48:31.573Z,15.07
2022-12-23T17:53:31.245Z,14.13
2022-12-23T17:58:29.298Z,13.70
2022-12-23T18:03:27.318Z,15.37
2022-12-23T18:08:25.830Z,14.73
2022-12-23T18:13:25.221Z,12.97
2022-12-23T18:18:32.988Z,18.17
2022-12-23T18:23:37.153Z,14.47
2022-12-23T18:28:36.671Z,16.77
2022-12-23T18:33:34.687Z,18.23
2022-12-23T18:38:32.767Z,16.77
2022-12-23T18:43:30.810Z,17.60
2022-12-23T18:48:30.414Z,17.47
2022-12-23T18:53:28.528Z,18.67
2022-12-23T18:58:26.615Z,21.70
2022-12-23T19:03:26.169Z,27.13
2022-12-23T19:08:27.857Z,24.73
2022-12-23T19:13:26.556Z,25.27
2022-12-23T19:18:24.704Z,22.27
2022-12-23T19:23:22.739Z,22.87
2022-12-23T19:28:22.233Z,30.20
2022-12-23T19:33:20.304Z,30.23
2022-12-23T19:38:18.347Z,29.53
2022-12-23T19:43:16.372Z,34.07
2022-12-23T19:48:15.762Z,25.67
2022-12-23T19:53:15.077Z,24.77
2022-12-23T19:58:13.153Z,25.07
2022-12-23T20:03:11.263Z,24.70
2022-12-23T20:08:10.722Z,26.27
2022-12-23T20:13:08.799Z,26.10
2022-12-23T20:18:06.990Z,27.00
2022-12-23T20:23:05.241Z,36.10
2022-12-23T20:28:04.780Z,26.80
2022-12-23T20:33:02.846Z,24.63
2022-12-23T20:38:00.922Z,23.43
2022-12-23T20:42:59.244Z,24.37
2022-12-23T20:47:58.653Z,31.00
2022-12-23T20:52:56.671Z,26.07
2022-12-23T20:57:54.706Z,30.40
2022-12-23T21:02:52.832Z,26.80
2022-12-23T21:07:52.274Z,29.40
2022-12-23T21:12:50.399Z,29.70
2022-12-23T21:17:48.393Z,27.57
2022-12-23T21:22:46.428Z,25.97
2022-12-23T21:27:45.859Z,25.57
2022-12-23T21:32:43.921Z,25.33
2022-12-23T21:37:42.136Z,26.87
2022-12-23T21:42:40.203Z,21.50
2022-12-23T21:47:39.630Z,23.37
2022-12-23T21:52:37.654Z,19.90
2022-12-23T21:57:35.684Z,27.33
2022-12-23T22:02:33.846Z,20.30
2022-12-23T22:07:33.290Z,19.63
2022-12-23T22:12:31.339Z,23.20
2022-12-23T22:17:29.417Z,22.70
2022-12-23T22:22:27.523Z,19.10
2022-12-23T22:27:26.956Z,18.63
2022-12-23T22:32:24.999Z,20.90
2022-12-23T22:37:23.050Z,17.03
2022-12-23T22:42:21.197Z,18.17
2022-12-23T22:47:20.612Z,21.93
2022-12-23T22:52:18.805Z,19.70
2022-12-23T22:57:16.844Z,20.37
2022-12-23T23:02:15.007Z,21.53
2022-12-23T23:07:14.475Z,17.07
2022-12-23T23:12:12.524Z,18.97
2022-12-23T23:17:10.536Z,18.63
2022-12-23T23:22:08.615Z,19.57
2022-12-23T23:27:08.028Z,18.93
2022-12-23T23:32:08.112Z,18.03
2022-12-23T23:37:06.261Z,15.60
2022-12-23T23:42:04.395Z,15.87
2022-12-23T23:47:03.747Z,14.20
2022-12-23T23:52:01.769Z,13.30
2022-12-23T23:56:59.791Z,10.00
